Time;durP1;ratioP1;P1;durP2;ratioP2;P2;SDS_P1;SDS_P2;PMS_P1;PMS_P2;Temp;Humidity;BMP_temperature;BMP_pressure;BME280_temperature;BME280_humidity;BME280_pressure;Samples;Min_cycle;Max_cycle;Signal;HPM_P1;HPM_P2
2021/11/21 00:00:18;;;;;;;;;;;3.20;1.00;;;;;;5026405;28;19917;-67
2021/11/21 00:02:44;;;;;;;;;;;3.10;1.00;;;;;;5024873;28;19928;-66
2021/11/21 00:05:11;;;;;;;;;;;3.10;1.00;;;;;;5025688;28;19917;-66
2021/11/21 00:07:36;;;;;;;;;;;3.10;1.00;;;;;;5026343;28;19990;-67
2021/11/21 00:10:02;;;;;;;;;;;3.00;1.00;;;;;;5024061;28;19948;-66
2021/11/21 00:12:27;;;;;;;;;;;3.00;1.00;;;;;;5025422;28;20600;-66
2021/11/21 00:14:53;;;;;;;;;;;2.90;1.00;;;;;;5025602;28;19913;-67
2021/11/21 00:17:19;;;;;;;;;;;2.90;1.00;;;;;;5026695;28;19944;-67
2021/11/21 00:19:44;;;;;;;;;;;2.90;1.00;;;;;;5026247;28;19963;-67
2021/11/21 00:22:13;;;;;;;;;;;2.90;1.00;;;;;;5025255;28;19944;-67
2021/11/21 00:24:42;;;;;;;;;;;2.90;1.00;;;;;;5024687;28;19913;-67
2021/11/21 00:27:08;;;;;;;;;;;2.80;1.00;;;;;;5026148;28;19910;-66
2021/11/21 00:29:34;;;;;;;;;;;2.80;1.00;;;;;;5025538;28;19924;-72
2021/11/21 00:31:59;;;;;;;;;;;2.70;1.00;;;;;;5025482;28;19959;-69
2021/11/21 00:34:25;;;;;;;;;;;2.70;1.00;;;;;;5025955;28;20543;-70
2021/11/21 00:36:51;;;;;;;;;;;2.70;1.00;;;;;;5025845;28;19972;-70
2021/11/21 00:39:16;;;;;;;;;;;2.80;1.00;;;;;;5005993;28;19986;-70
2021/11/21 00:41:42;;;;;;;;;;;2.80;1.00;;;;;;5025140;28;19913;-67
2021/11/21 00:44:08;;;;;;;;;;;2.80;1.00;;;;;;5024907;28;19917;-66
2021/11/21 00:46:33;;;;;;;;;;;2.90;1.00;;;;;;5025916;28;19995;-67
2021/11/21 00:49:00;;;;;;;;;;;2.90;1.00;;;;;;5026996;28;19928;-67
2021/11/21 00:51:26;;;;;;;;;;;2.90;1.00;;;;;;5028588;28;19925;-68
2021/11/21 00:53:54;;;;;;;;;;;2.90;1.00;;;;;;5026537;28;20704;-67
2021/11/21 00:56:20;;;;;;;;;;;2.90;1.00;;;;;;5028295;28;19966;-67
2021/11/21 00:58:46;;;;;;;;;;;3.00;1.00;;;;;;5027934;28;20381;-68
2021/11/21 01:01:12;;;;;;;;;;;3.00;1.00;;;;;;5028346;28;19924;-67
2021/11/21 01:03:37;;;;;;;;;;;3.00;1.00;;;;;;5026931;28;19921;-67
2021/11/21 01:06:03;;;;;;;;;;;3.10;1.00;;;;;;5028036;28;19975;-68
2021/11/21 01:08:29;;;;;;;;;;;3.10;1.00;;;;;;5027081;28;20024;-68
2021/11/21 01:10:56;;;;;;;;;;;3.10;1.00;;;;;;5027212;28;20000;-68
2021/11/21 01:13:22;;;;;;;;;;;3.20;1.00;;;;;;5027304;28;19914;-68
2021/11/21 01:15:48;;;;;;;;;;;3.20;1.00;;;;;;5028738;28;20027;-68
2021/11/21 01:18:13;;;;;;;;;;;3.20;1.00;;;;;;5028080;28;19932;-68
2021/11/21 01:20:40;;;;;;;;;;;3.30;1.00;;;;;;5027961;28;19928;-68
2021/11/21 01:23:07;;;;;;;;;;;3.30;1.00;;;;;;5026077;28;19972;-67
2021/11/21 01:25:32;;;;;;;;;;;3.30;1.00;;;;;;5027405;28;19917;-68
2021/11/21 01:27:58;;;;;;;;;;;3.30;1.00;;;;;;5028204;28;19920;-67
2021/11/21 01:30:26;;;;;;;;;;;3.20;1.00;;;;;;5028223;28;19917;-68
2021/11/21 01:32:52;;;;;;;;;;;3.20;1.00;;;;;;5027164;28;19921;-68
2021/11/21 01:35:18;;;;;;;;;;;3.20;1.00;;;;;;5027670;28;19975;-68
2021/11/21 01:37:44;;;;;;;;;;;3.30;1.00;;;;;;5027601;28;19917;-69
2021/11/21 01:40:10;;;;;;;;;;;3.30;1.00;;;;;;5026264;28;20318;-68
2021/11/21 01:42:36;;;;;;;;;;;3.20;1.00;;;;;;5027335;28;20001;-68
2021/11/21 01:45:02;;;;;;;;;;;3.20;1.00;;;;;;5027163;28;19917;-67
2021/11/21 01:47:28;;;;;;;;;;;3.10;1.00;;;;;;5028059;28;19917;-67
2021/11/21 01:49:54;;;;;;;;;;;3.00;1.00;;;;;;5027157;28;19924;-68
2021/11/21 01:52:20;;;;;;;;;;;3.10;1.00;;;;;;5027713;28;20362;-68
2021/11/21 01:54:46;;;;;;;;;;;3.10;1.00;;;;;;5029739;28;20007;-68
2021/11/21 01:57:12;;;;;;;;;;;3.10;1.00;;;;;;5031523;28;19996;-69
2021/11/21 01:59:38;;;;;;;;;;;3.10;1.00;;;;;;5030828;28;19917;-68
2021/11/21 02:02:03;;;;;;;;;;;3.10;1.00;;;;;;5031161;28;19913;-68
2021/11/21 02:04:29;;;;;;;;;;;3.10;1.00;;;;;;5031113;28;19949;-68
2021/11/21 02:06:54;;;;;;;;;;;3.10;1.00;;;;;;5031074;28;19917;-68
2021/11/21 02:09:20;;;;;;;;;;;3.10;1.00;;;;;;5029570;28;19952;-68
2021/11/21 02:11:46;;;;;;;;;;;3.10;1.00;;;;;;5029954;28;19959;-68
2021/11/21 02:14:11;;;;;;;;;;;3.20;1.00;;;;;;5030575;28;19924;-69
2021/11/21 02:16:37;;;;;;;;;;;3.20;1.00;;;;;;5031125;28;19979;-68
2021/11/21 02:19:03;;;;;;;;;;;3.20;1.00;;;;;;5031363;28;19924;-68
2021/11/21 02:21:28;;;;;;;;;;;3.20;1.00;;;;;;5064275;22;19929;-69
2021/11/21 02:23:54;;;;;;;;;;;3.20;1.00;;;;;;5048731;28;19992;-69
2021/11/21 02:26:20;;;;;;;;;;;3.10;1.00;;;;;;5050763;28;20436;-69
2021/11/21 02:28:46;;;;;;;;;;;3.20;1.00;;;;;;5050636;28;19913;-68
2021/11/21 02:31:12;;;;;;;;;;;3.20;1.00;;;;;;5040449;28;19921;-70
2021/11/21 02:33:38;;;;;;;;;;;3.20;1.00;;;;;;5030064;28;19917;-69
2021/11/21 02:36:05;;;;;;;;;;;3.20;1.00;;;;;;5030643;28;19913;-69
2021/11/21 02:38:31;;;;;;;;;;;3.10;1.00;;;;;;5029711;28;19913;-68
2021/11/21 02:40:58;;;;;;;;;;;3.10;1.00;;;;;;5030669;28;20003;-68
2021/11/21 02:43:23;;;;;;;;;;;3.10;1.00;;;;;;5030266;28;20016;-69
2021/11/21 02:45:50;;;;;;;;;;;3.10;1.00;;;;;;5030868;28;20003;-70
2021/11/21 02:48:20;;;;;;;;;;;3.10;1.00;;;;;;5030654;28;19914;-68
2021/11/21 02:50:47;;;;;;;;;;;3.10;1.00;;;;;;5030344;28;19913;-70
2021/11/21 02:53:17;;;;;;;;;;;3.10;1.00;;;;;;5028710;28;19921;-69
2021/11/21 02:55:42;;;;;;;;;;;3.00;1.00;;;;;;5030382;28;20580;-70
2021/11/21 02:58:08;;;;;;;;;;;3.00;1.00;;;;;;5030461;28;19948;-70
2021/11/21 03:00:34;;;;;;;;;;;3.00;1.00;;;;;;5030200;28;19917;-71
2021/11/21 03:03:00;;;;;;;;;;;3.10;1.00;;;;;;5030045;28;20391;-70
2021/11/21 03:05:26;;;;;;;;;;;3.10;1.00;;;;;;5029855;28;19913;-71
2021/11/21 03:07:51;;;;;;;;;;;3.10;1.00;;;;;;5030255;28;20449;-68
2021/11/21 03:10:19;;;;;;;;;;;3.10;1.00;;;;;;5028077;28;19979;-69
2021/11/21 03:12:48;;;;;;;;;;;3.20;1.00;;;;;;5030201;28;20343;-70
2021/11/21 03:15:14;;;;;;;;;;;3.20;1.00;;;;;;5029841;28;20059;-70
2021/11/21 03:17:43;;;;;;;;;;;3.20;1.00;;;;;;5030407;28;19940;-69
2021/11/21 03:20:08;;;;;;;;;;;3.20;1.00;;;;;;5029346;28;19932;-69
2021/11/21 03:22:34;;;;;;;;;;;3.20;1.00;;;;;;5028948;28;19925;-69
2021/11/21 03:24:59;;;;;;;;;;;3.10;1.00;;;;;;5027196;28;20342;-69
2021/11/21 03:27:26;;;;;;;;;;;3.00;1.00;;;;;;5029973;28;19913;-68
2021/11/21 03:29:52;;;;;;;;;;;3.00;1.00;;;;;;5011949;28;19913;-69
2021/11/21 03:32:17;;;;;;;;;;;3.00;1.00;;;;;;5028838;28;19932;-69
2021/11/21 03:34:43;;;;;;;;;;;2.90;1.00;;;;;;5029557;28;19955;-70
2021/11/21 03:37:09;;;;;;;;;;;3.00;1.00;;;;;;5014762;28;19913;-70
2021/11/21 03:39:34;;;;;;;;;;;2.90;1.00;;;;;;5028146;28;19913;-69
2021/11/21 03:42:00;;;;;;;;;;;3.00;1.00;;;;;;5029449;28;19936;-69
2021/11/21 03:44:26;;;;;;;;;;;2.90;1.00;;;;;;5028715;28;20246;-70
2021/11/21 03:46:51;;;;;;;;;;;2.90;1.00;;;;;;5030069;28;20373;-69
2021/11/21 03:49:17;;;;;;;;;;;2.90;1.00;;;;;;5029215;28;19931;-70
2021/11/21 03:51:42;;;;;;;;;;;2.90;1.00;;;;;;5011470;28;19918;-69
2021/11/21 03:54:08;;;;;;;;;;;3.00;1.00;;;;;;5027756;28;19913;-68
2021/11/21 03:56:34;;;;;;;;;;;3.00;1.00;;;;;;5028994;28;20000;-69
2021/11/21 03:58:59;;;;;;;;;;;3.00;1.00;;;;;;5029076;28;20285;-68
2021/11/21 04:01:25;;;;;;;;;;;3.00;1.00;;;;;;5029544;28;19920;-70
2021/11/21 04:03:50;;;;;;;;;;;3.00;1.00;;;;;;5028927;28;19909;-69
2021/11/21 04:06:16;;;;;;;;;;;3.00;1.00;;;;;;5028075;28;20317;-70
2021/11/21 04:08:43;;;;;;;;;;;2.90;1.00;;;;;;5027947;28;19925;-70
2021/11/21 04:11:09;;;;;;;;;;;2.90;1.00;;;;;;5020207;28;20621;-69
2021/11/21 04:13:34;;;;;;;;;;;2.90;1.00;;;;;;5028688;28;19974;-70
2021/11/21 04:16:00;;;;;;;;;;;3.00;1.00;;;;;;5029182;28;19925;-70
2021/11/21 04:18:26;;;;;;;;;;;2.90;1.00;;;;;;5029003;28;19979;-70
2021/11/21 04:20:51;;;;;;;;;;;2.90;1.00;;;;;;5027934;28;20350;-69
2021/11/21 04:23:17;;;;;;;;;;;2.80;1.00;;;;;;5026912;28;20028;-69
2021/11/21 04:25:43;;;;;;;;;;;2.80;1.00;;;;;;5028171;28;20298;-70
2021/11/21 04:28:11;;;;;;;;;;;2.80;1.00;;;;;;5028755;28;19971;-69
2021/11/21 04:30:37;;;;;;;;;;;2.80;1.00;;;;;;5028840;28;20290;-69
2021/11/21 04:33:03;;;;;;;;;;;2.80;1.00;;;;;;5027871;28;20012;-69
2021/11/21 04:35:29;;;;;;;;;;;2.70;1.00;;;;;;5028213;28;19924;-69
2021/11/21 04:37:55;;;;;;;;;;;2.60;1.00;;;;;;5028153;28;19913;-69
2021/11/21 04:40:20;;;;;;;;;;;2.60;1.00;;;;;;5027276;28;19953;-69
2021/11/21 04:42:46;;;;;;;;;;;2.60;1.00;;;;;;5027718;28;20226;-68
2021/11/21 04:45:12;;;;;;;;;;;2.70;1.00;;;;;;5028860;28;19995;-69
2021/11/21 04:47:38;;;;;;;;;;;2.70;1.00;;;;;;5029189;28;20008;-70
2021/11/21 04:50:04;;;;;;;;;;;2.80;1.00;;;;;;5010114;28;19913;-69
2021/11/21 04:52:29;;;;;;;;;;;2.80;1.00;;;;;;5027980;28;19913;-69
2021/11/21 04:54:55;;;;;;;;;;;2.80;1.00;;;;;;5026037;28;19914;-68
2021/11/21 04:57:21;;;;;;;;;;;2.80;1.00;;;;;;5011056;28;19932;-71
2021/11/21 04:59:46;;;;;;;;;;;2.80;1.00;;;;;;5028227;28;19913;-69
2021/11/21 05:02:12;;;;;;;;;;;2.80;1.00;;;;;;5027552;28;20011;-69
2021/11/21 05:04:37;;;;;;;;;;;2.90;1.00;;;;;;5027656;28;19936;-70
2021/11/21 05:07:06;;;;;;;;;;;2.90;1.00;;;;;;5027802;28;19913;-70
2021/11/21 05:09:33;;;;;;;;;;;2.90;1.00;;;;;;5027014;28;20286;-70
2021/11/21 05:11:58;;;;;;;;;;;2.90;1.00;;;;;;5027827;28;19924;-69
2021/11/21 05:14:24;;;;;;;;;;;2.90;1.00;;;;;;5028324;28;19913;-70
2021/11/21 05:16:49;;;;;;;;;;;2.80;1.00;;;;;;5028885;28;20349;-68
2021/11/21 05:19:15;;;;;;;;;;;2.80;1.00;;;;;;5028183;28;20346;-71
2021/11/21 05:21:40;;;;;;;;;;;2.70;1.00;;;;;;5028254;28;19917;-68
2021/11/21 05:24:06;;;;;;;;;;;2.70;1.00;;;;;;5026180;28;20039;-69
2021/11/21 05:26:32;;;;;;;;;;;2.70;1.00;;;;;;5027900;28;20301;-69
2021/11/21 05:28:58;;;;;;;;;;;2.60;1.00;;;;;;5031203;28;19916;-70
2021/11/21 05:31:25;;;;;;;;;;;2.60;1.00;;;;;;5031983;28;19983;-70
2021/11/21 05:33:51;;;;;;;;;;;2.60;1.00;;;;;;5030769;28;19919;-71
2021/11/21 05:36:16;;;;;;;;;;;2.50;1.00;;;;;;5031830;28;20246;-70
2021/11/21 05:38:42;;;;;;;;;;;2.50;1.00;;;;;;5030458;28;19931;-70
2021/11/21 05:41:07;;;;;;;;;;;2.50;1.00;;;;;;5013377;28;19928;-70
2021/11/21 05:43:33;;;;;;;;;;;2.40;1.00;;;;;;5030637;28;20023;-69
2021/11/21 05:45:58;;;;;;;;;;;2.40;1.00;;;;;;5031762;28;19921;-70
2021/11/21 05:48:24;;;;;;;;;;;2.40;1.00;;;;;;5031793;28;19932;-68
2021/11/21 05:50:50;;;;;;;;;;;2.40;1.00;;;;;;5032155;28;19967;-70
2021/11/21 05:53:15;;;;;;;;;;;2.30;1.00;;;;;;5029589;28;19913;-70
2021/11/21 05:55:41;;;;;;;;;;;2.30;1.00;;;;;;5031009;28;19928;-69
2021/11/21 05:58:06;;;;;;;;;;;2.30;1.00;;;;;;5031623;28;19914;-70
2021/11/21 06:00:32;;;;;;;;;;;2.30;1.00;;;;;;5031459;28;19917;-69
2021/11/21 06:02:59;;;;;;;;;;;2.30;1.00;;;;;;5030545;28;19956;-68
2021/11/21 06:05:24;;;;;;;;;;;2.30;1.00;;;;;;5013411;28;19917;-70
2021/11/21 06:07:50;;;;;;;;;;;2.40;1.00;;;;;;5031297;28;19917;-69
2021/11/21 06:10:16;;;;;;;;;;;2.40;1.00;;;;;;5030510;28;19967;-69
2021/11/21 06:12:41;;;;;;;;;;;2.50;1.00;;;;;;5031661;28;19962;-70
2021/11/21 06:15:08;;;;;;;;;;;2.50;1.00;;;;;;5030250;28;20366;-69
2021/11/21 06:17:33;;;;;;;;;;;2.50;1.00;;;;;;5031273;28;20012;-69
2021/11/21 06:19:59;;;;;;;;;;;2.50;1.00;;;;;;5031399;28;20120;-70
2021/11/21 06:22:24;;;;;;;;;;;2.60;1.00;;;;;;5030579;28;19963;-70
2021/11/21 06:24:51;;;;;;;;;;;2.60;1.00;;;;;;5029355;28;20342;-69
2021/11/21 06:27:19;;;;;;;;;;;2.60;1.00;;;;;;5031359;28;20446;-69
2021/11/21 06:29:45;;;;;;;;;;;2.70;1.00;;;;;;5030390;28;19914;-70
2021/11/21 06:32:11;;;;;;;;;;;2.70;1.00;;;;;;5029938;28;20366;-70
2021/11/21 06:34:36;;;;;;;;;;;2.60;1.00;;;;;;5031004;28;20006;-70
2021/11/21 06:37:02;;;;;;;;;;;2.60;1.00;;;;;;5030724;28;19925;-70
2021/11/21 06:39:28;;;;;;;;;;;2.50;1.00;;;;;;5028440;28;20390;-68
2021/11/21 06:41:54;;;;;;;;;;;2.60;1.00;;;;;;5029917;28;19964;-69
2021/11/21 06:44:20;;;;;;;;;;;2.60;1.00;;;;;;5030277;28;19932;-70
2021/11/21 06:46:46;;;;;;;;;;;2.60;1.00;;;;;;5013047;28;19921;-69
2021/11/21 06:49:11;;;;;;;;;;;2.70;1.00;;;;;;5030842;28;19956;-69
2021/11/21 06:51:41;;;;;;;;;;;2.60;1.00;;;;;;5029985;28;19993;-69
2021/11/21 06:54:08;;;;;;;;;;;2.60;1.00;;;;;;5028730;28;19909;-72
2021/11/21 06:56:33;;;;;;;;;;;2.60;1.00;;;;;;5030266;28;19923;-71
2021/11/21 06:58:59;;;;;;;;;;;2.60;1.00;;;;;;5030530;28;19910;-71
2021/11/21 07:01:25;;;;;;;;;;;2.70;1.00;;;;;;5030536;28;19992;-72
2021/11/21 07:03:50;;;;;;;;;;;2.80;1.00;;;;;;5029561;28;20377;-72
2021/11/21 07:06:36;;;;;;;;;;;2.80;1.00;;;;;;5030461;28;19919;-72
2021/11/21 07:09:03;;;;;;;;;;;2.80;1.00;;;;;;5025753;28;19925;-69
2021/11/21 07:11:28;;;;;;;;;;;2.80;1.00;;;;;;5029511;28;19952;-71
2021/11/21 07:13:54;;;;;;;;;;;2.70;1.00;;;;;;5029379;28;19940;-68
2021/11/21 07:16:19;;;;;;;;;;;2.70;1.00;;;;;;5029729;28;19913;-69
2021/11/21 07:18:45;;;;;;;;;;;2.70;1.00;;;;;;5029994;28;19966;-69
2021/11/21 07:21:11;;;;;;;;;;;2.70;1.00;;;;;;5029759;28;19952;-70
2021/11/21 07:23:36;;;;;;;;;;;2.70;1.00;;;;;;5027732;28;20370;-69
2021/11/21 07:26:03;;;;;;;;;;;2.70;1.00;;;;;;5028913;28;19913;-68
2021/11/21 07:28:29;;;;;;;;;;;2.80;1.00;;;;;;5029385;28;20004;-70
2021/11/21 07:30:55;;;;;;;;;;;2.80;1.00;;;;;;5029170;28;19992;-69
2021/11/21 07:33:20;;;;;;;;;;;2.90;1.00;;;;;;5010489;28;20484;-68
2021/11/21 07:35:46;;;;;;;;;;;2.90;1.00;;;;;;5029497;28;20426;-69
2021/11/21 07:38:11;;;;;;;;;;;2.90;1.00;;;;;;5027643;28;19968;-70
2021/11/21 07:40:37;;;;;;;;;;;3.00;1.00;;;;;;5028827;28;19913;-69
2021/11/21 07:43:03;;;;;;;;;;;3.00;1.00;;;;;;5027564;28;19917;-69
2021/11/21 07:45:28;;;;;;;;;;;3.10;1.00;;;;;;5028969;28;19970;-69
2021/11/21 07:47:54;;;;;;;;;;;3.10;1.00;;;;;;5029132;28;20016;-68
2021/11/21 07:50:19;;;;;;;;;;;3.20;1.00;;;;;;5029042;28;20355;-69
2021/11/21 07:52:45;;;;;;;;;;;3.30;1.00;;;;;;5028732;28;19913;-68
2021/11/21 07:55:11;;;;;;;;;;;3.20;1.00;;;;;;5028365;28;19935;-72
2021/11/21 07:57:37;;;;;;;;;;;3.30;1.00;;;;;;5024435;28;20400;-70
2021/11/21 08:00:04;;;;;;;;;;;3.40;1.00;;;;;;5028794;28;19955;-71
2021/11/21 08:02:30;;;;;;;;;;;3.50;1.00;;;;;;5028198;28;19917;-69
2021/11/21 08:04:55;;;;;;;;;;;3.50;1.00;;;;;;5029917;28;19920;-69
2021/11/21 08:07:21;;;;;;;;;;;3.60;1.00;;;;;;5029960;28;20063;-69
2021/11/21 08:09:46;;;;;;;;;;;3.60;1.00;;;;;;5028849;28;20575;-69
2021/11/21 08:12:12;;;;;;;;;;;3.60;1.00;;;;;;5028317;28;19919;-69
2021/11/21 08:14:38;;;;;;;;;;;3.70;1.00;;;;;;5029849;28;19910;-69
2021/11/21 08:17:03;;;;;;;;;;;3.70;1.00;;;;;;5031211;28;20370;-69
2021/11/21 08:19:29;;;;;;;;;;;3.70;1.00;;;;;;5034587;28;19920;-69
2021/11/21 08:21:55;;;;;;;;;;;3.80;1.00;;;;;;5034478;28;19921;-68
2021/11/21 08:24:20;;;;;;;;;;;3.90;1.00;;;;;;5017612;28;19920;-69
2021/11/21 08:26:46;;;;;;;;;;;3.90;1.00;;;;;;5035839;28;19972;-69
2021/11/21 08:29:12;;;;;;;;;;;4.00;1.00;;;;;;5038062;28;19913;-70
2021/11/21 08:31:41;;;;;;;;;;;4.00;1.00;;;;;;5037269;28;19917;-70
2021/11/21 08:34:07;;;;;;;;;;;4.10;1.00;;;;;;5033555;28;19928;-68
2021/11/21 08:36:33;;;;;;;;;;;4.10;99.90;;;;;;5034483;28;19909;-69
2021/11/21 08:38:58;;;;;;;;;;;4.10;99.90;;;;;;5032153;28;20377;-69
2021/11/21 08:41:24;;;;;;;;;;;4.10;99.90;;;;;;5030743;28;20003;-70
2021/11/21 08:43:49;;;;;;;;;;;4.20;99.90;;;;;;5030927;28;20562;-69
2021/11/21 08:46:15;;;;;;;;;;;4.20;99.90;;;;;;5030792;28;20367;-69
2021/11/21 08:48:40;;;;;;;;;;;4.10;99.90;;;;;;5030163;28;20285;-69
2021/11/21 08:51:06;;;;;;;;;;;4.20;99.90;;;;;;5029894;28;20400;-68
2021/11/21 08:53:31;;;;;;;;;;;4.20;99.90;;;;;;5011138;28;20026;-69
2021/11/21 08:55:57;;;;;;;;;;;4.30;99.90;;;;;;5010429;28;19924;-69
2021/11/21 08:58:23;;;;;;;;;;;4.40;99.90;;;;;;5029544;28;20055;-71
2021/11/21 09:00:49;;;;;;;;;;;4.40;27.80;;;;;;5034822;28;19936;-71
2021/11/21 09:03:14;;;;;;;;;;;4.40;1.00;;;;;;5032130;28;19917;-69
2021/11/21 09:05:40;;;;;;;;;;;4.40;1.00;;;;;;5033816;28;20514;-70
2021/11/21 09:08:06;;;;;;;;;;;4.50;1.00;;;;;;5034626;28;20008;-70
2021/11/21 09:10:31;;;;;;;;;;;4.40;1.00;;;;;;5033249;28;20056;-70
2021/11/21 09:12:57;;;;;;;;;;;4.50;1.00;;;;;;5032581;28;20360;-69
2021/11/21 09:15:22;;;;;;;;;;;4.50;1.00;;;;;;5034232;28;19939;-69
2021/11/21 09:17:50;;;;;;;;;;;4.60;1.00;;;;;;5034380;28;19923;-69
2021/11/21 09:20:16;;;;;;;;;;;4.80;99.90;;;;;;5035343;28;19915;-69
2021/11/21 09:22:42;;;;;;;;;;;4.90;1.00;;;;;;5032596;28;20008;-70
2021/11/21 09:25:08;;;;;;;;;;;4.90;1.00;;;;;;5032806;28;19910;-70
2021/11/21 09:27:34;;;;;;;;;;;4.90;1.00;;;;;;5032836;28;19909;-69
2021/11/21 09:30:00;;;;;;;;;;;5.00;1.00;;;;;;5032645;28;19913;-70
2021/11/21 09:32:26;;;;;;;;;;;5.00;1.00;;;;;;5032102;28;20293;-70
2021/11/21 09:34:51;;;;;;;;;;;5.10;99.90;;;;;;5032662;28;19913;-70
2021/11/21 09:37:17;;;;;;;;;;;5.20;99.90;;;;;;5032016;28;19913;-70
2021/11/21 09:39:45;;;;;;;;;;;5.30;56.60;;;;;;5035405;28;20281;-70
2021/11/21 09:42:11;;;;;;;;;;;5.30;1.00;;;;;;5014170;28;20737;-69
2021/11/21 09:44:36;;;;;;;;;;;5.40;1.00;;;;;;5032199;28;19910;-70
2021/11/21 09:47:02;;;;;;;;;;;5.50;99.90;;;;;;5032922;28;19913;-69
2021/11/21 09:49:28;;;;;;;;;;;5.60;50.20;;;;;;5033068;28;19909;-69
2021/11/21 09:51:54;;;;;;;;;;;5.60;1.00;;;;;;5032892;28;19913;-69
2021/11/21 09:54:23;;;;;;;;;;;5.70;1.00;;;;;;5031224;28;19929;-70
2021/11/21 09:56:49;;;;;;;;;;;5.80;99.90;;;;;;5012589;28;20366;-69
2021/11/21 09:59:15;;;;;;;;;;;5.80;99.90;;;;;;5012821;28;19999;-69
2021/11/21 10:01:41;;;;;;;;;;;5.90;1.00;;;;;;5012957;28;20000;-69
2021/11/21 10:04:08;;;;;;;;;;;5.80;1.00;;;;;;5012856;28;19924;-68
2021/11/21 10:06:36;;;;;;;;;;;5.90;1.00;;;;;;5030804;28;20481;-70
2021/11/21 10:09:05;;;;;;;;;;;5.90;1.00;;;;;;5022147;28;20415;-69
2021/11/21 10:11:30;;;;;;;;;;;6.00;1.00;;;;;;5033514;28;20374;-71
2021/11/21 10:14:03;;;;;;;;;;;6.10;99.90;;;;;;5032490;28;19960;-69
2021/11/21 10:16:31;;;;;;;;;;;6.30;99.90;;;;;;5033473;28;20008;-69
2021/11/21 10:19:03;;;;;;;;;;;6.40;1.00;;;;;;5032840;28;20326;-70
2021/11/21 10:21:30;;;;;;;;;;;6.50;1.00;;;;;;5032537;28;19921;-69
2021/11/21 10:24:14;;;;;;;;;;;6.50;1.00;;;;;;5032013;28;20336;-69
2021/11/21 10:26:40;;;;;;;;;;;6.40;1.00;;;;;;5031710;28;19917;-69
2021/11/21 10:29:24;;;;;;;;;;;6.30;1.00;;;;;;5031688;28;19917;-68
2021/11/21 10:31:50;;;;;;;;;;;6.50;1.00;;;;;;5031501;28;20027;-69
2021/11/21 10:34:15;;;;;;;;;;;6.50;1.00;;;;;;5031638;28;19913;-70
2021/11/21 10:36:41;;;;;;;;;;;6.50;1.00;;;;;;5032095;28;19913;-69
2021/11/21 10:39:08;;;;;;;;;;;6.50;1.00;;;;;;5030841;28;19999;-69
2021/11/21 10:41:34;;;;;;;;;;;6.60;1.00;;;;;;5031448;28;19920;-69
2021/11/21 10:44:09;;;;;;;;;;;6.50;1.00;;;;;;5030870;28;19917;-71
2021/11/21 10:46:35;;;;;;;;;;;6.40;1.00;;;;;;5032014;28;20327;-70
2021/11/21 10:49:13;;;;;;;;;;;6.40;1.00;;;;;;5031542;28;19912;-69
2021/11/21 10:51:39;;;;;;;;;;;6.40;1.00;;;;;;5014001;28;19955;-71
2021/11/21 10:54:17;;;;;;;;;;;6.30;1.00;;;;;;5029849;28;20347;-69
2021/11/21 10:56:50;;;;;;;;;;;6.40;1.00;;;;;;5031447;28;20372;-69
2021/11/21 10:59:31;;;;;;;;;;;6.50;1.00;;;;;;5030748;28;19928;-71
2021/11/21 11:02:04;;;;;;;;;;;6.50;99.90;;;;;;4993131;28;20287;-70
2021/11/21 11:04:29;;;;;;;;;;;6.60;99.90;;;;;;5029427;28;19921;-70
2021/11/21 11:06:55;;;;;;;;;;;6.70;99.90;;;;;;5031496;28;19909;-72
2021/11/21 11:09:22;;;;;;;;;;;6.60;99.90;;;;;;5030019;28;20204;-69
2021/11/21 11:11:49;;;;;;;;;;;6.60;99.90;;;;;;5029865;28;19928;-69
2021/11/21 11:14:18;;;;;;;;;;;6.50;99.90;;;;;;5024419;28;20047;-71
2021/11/21 11:16:50;;;;;;;;;;;6.50;99.90;;;;;;5031605;28;19913;-70
2021/11/21 11:19:17;;;;;;;;;;;6.40;99.90;;;;;;5031074;28;19917;-72
2021/11/21 11:21:43;;;;;;;;;;;6.30;99.90;;;;;;5031054;28;19967;-69
2021/11/21 11:24:10;;;;;;;;;;;6.30;99.90;;;;;;5029983;28;19917;-71
2021/11/21 11:26:35;;;;;;;;;;;6.40;99.90;;;;;;5029941;28;19937;-68
2021/11/21 11:29:02;;;;;;;;;;;6.40;99.90;;;;;;5031256;28;19971;-70
2021/11/21 11:31:32;;;;;;;;;;;6.50;99.90;;;;;;5030516;28;19973;-69
2021/11/21 11:33:59;;;;;;;;;;;6.50;99.90;;;;;;5029916;28;19924;-70
2021/11/21 11:36:27;;;;;;;;;;;6.60;99.90;;;;;;5030503;28;19917;-69
2021/11/21 11:39:15;;;;;;;;;;;6.50;99.90;;;;;;5030442;28;20266;-69
2021/11/21 11:41:40;;;;;;;;;;;6.50;99.90;;;;;;5030438;28;19909;-70
2021/11/21 11:44:06;;;;;;;;;;;6.30;99.90;;;;;;5029906;28;19940;-69
2021/11/21 11:46:36;;;;;;;;;;;6.10;99.90;;;;;;5011300;28;19921;-68
2021/11/21 11:49:09;;;;;;;;;;;6.10;1.00;;;;;;5018309;28;19920;-68
2021/11/21 11:51:38;;;;;;;;;;;6.00;1.00;;;;;;5030328;28;19991;-70
2021/11/21 11:54:15;;;;;;;;;;;6.00;1.00;;;;;;5028988;28;19917;-68
2021/11/21 11:56:46;;;;;;;;;;;6.00;1.00;;;;;;5029727;28;20413;-69
2021/11/21 11:59:23;;;;;;;;;;;6.00;1.00;;;;;;5029571;28;19921;-68
2021/11/21 12:01:49;;;;;;;;;;;5.90;1.00;;;;;;5029674;28;20000;-70
2021/11/21 12:04:17;;;;;;;;;;;5.80;1.00;;;;;;5029711;28;20028;-70
2021/11/21 12:06:48;;;;;;;;;;;5.70;1.00;;;;;;5030164;28;19916;-69
2021/11/21 12:09:25;;;;;;;;;;;5.70;1.00;;;;;;5028838;28;19948;-69
2021/11/21 12:11:58;;;;;;;;;;;5.70;1.00;;;;;;5028966;28;19969;-69
2021/11/21 12:14:27;;;;;;;;;;;5.60;1.00;;;;;;5030367;28;20725;-69
2021/11/21 12:17:01;;;;;;;;;;;5.60;99.90;;;;;;5030200;28;20418;-69
2021/11/21 12:19:41;;;;;;;;;;;5.50;99.90;;;;;;5029861;28;20274;-70
2021/11/21 12:22:37;;;;;;;;;;;5.40;99.90;;;;;;5029005;28;20405;-69
2021/11/21 12:25:07;;;;;;;;;;;5.30;99.90;;;;;;5028371;28;19920;-69
2021/11/21 12:27:34;;;;;;;;;;;5.40;1.00;;;;;;5029491;28;19909;-68
2021/11/21 12:30:03;;;;;;;;;;;5.40;99.90;;;;;;5011585;28;19913;-69
2021/11/21 12:32:30;;;;;;;;;;;5.60;1.00;;;;;;5028696;28;20470;-69
2021/11/21 12:34:56;;;;;;;;;;;5.70;1.00;;;;;;5023012;28;19913;-69
2021/11/21 12:37:22;;;;;;;;;;;6.00;1.00;;;;;;5009642;28;20412;-69
2021/11/21 12:40:10;;;;;;;;;;;6.10;99.90;;;;;;5024839;28;19964;-69
2021/11/21 12:42:37;;;;;;;;;;;6.20;99.90;;;;;;5014910;28;20312;-69
2021/11/21 12:45:13;;;;;;;;;;;6.20;29.80;;;;;;5028685;28;20360;-68
2021/11/21 12:47:40;;;;;;;;;;;6.10;40.40;;;;;;5009533;28;19961;-69
2021/11/21 12:50:06;;;;;;;;;;;6.00;47.70;;;;;;5015877;28;19999;-70
2021/11/21 12:52:32;;;;;;;;;;;5.80;84.60;;;;;;5018559;28;19987;-69
2021/11/21 12:54:58;;;;;;;;;;;5.70;99.90;;;;;;5025271;28;20453;-70
2021/11/21 12:57:23;;;;;;;;;;;5.60;99.90;;;;;;5029143;28;19958;-68
2021/11/21 12:59:56;;;;;;;;;;;5.50;1.00;;;;;;5011695;28;19909;-68
2021/11/21 13:02:25;;;;;;;;;;;5.50;1.00;;;;;;5028935;28;19959;-69
2021/11/21 13:04:51;;;;;;;;;;;5.50;1.00;;;;;;5029364;28;19971;-69
2021/11/21 13:07:27;;;;;;;;;;;5.60;99.90;;;;;;5029344;28;19914;-70
2021/11/21 13:09:58;;;;;;;;;;;5.70;1.00;;;;;;5028128;28;20235;-70
2021/11/21 13:12:25;;;;;;;;;;;5.70;1.00;;;;;;5028546;28;19916;-69
2021/11/21 13:14:57;;;;;;;;;;;5.80;1.00;;;;;;5029265;28;20378;-69
2021/11/21 13:17:23;;;;;;;;;;;5.70;1.00;;;;;;5030012;28;19914;-69
2021/11/21 13:19:59;;;;;;;;;;;5.60;99.90;;;;;;5029597;28;19932;-69
2021/11/21 13:22:45;;;;;;;;;;;5.70;99.90;;;;;;5028969;28;20023;-70
2021/11/21 13:25:10;;;;;;;;;;;5.70;1.10;;;;;;5028272;28;19920;-70
2021/11/21 13:27:36;;;;;;;;;;;5.70;99.90;;;;;;5024411;28;20325;-69
2021/11/21 13:30:11;;;;;;;;;;;5.70;99.90;;;;;;5027559;28;19913;-69
2021/11/21 13:32:36;;;;;;;;;;;5.70;1.00;;;;;;5027877;28;19943;-68
2021/11/21 13:35:15;;;;;;;;;;;5.80;99.90;;;;;;5029215;28;19963;-70
2021/11/21 13:37:41;;;;;;;;;;;5.70;99.90;;;;;;5028796;28;20008;-70
2021/11/21 13:40:06;;;;;;;;;;;5.60;99.90;;;;;;5027149;28;20222;-70
2021/11/21 13:42:32;;;;;;;;;;;5.60;1.00;;;;;;5027648;28;19917;-71
2021/11/21 13:44:58;;;;;;;;;;;5.70;1.00;;;;;;5028402;28;19921;-69
2021/11/21 13:47:27;;;;;;;;;;;5.80;1.00;;;;;;5028832;28;20290;-67
2021/11/21 13:49:54;;;;;;;;;;;5.80;1.00;;;;;;5031343;28;19940;-69
2021/11/21 13:52:21;;;;;;;;;;;5.70;1.00;;;;;;5030186;28;19917;-69
2021/11/21 13:54:48;;;;;;;;;;;5.70;1.00;;;;;;5031105;28;19982;-69
2021/11/21 13:57:17;;;;;;;;;;;5.70;8.50;;;;;;5031810;28;19909;-68
2021/11/21 13:59:43;;;;;;;;;;;5.70;1.00;;;;;;5031637;28;20278;-69
2021/11/21 14:02:09;;;;;;;;;;;5.60;1.00;;;;;;5031174;28;19920;-70
2021/11/21 14:04:35;;;;;;;;;;;5.60;99.90;;;;;;5031755;28;19913;-70
2021/11/21 14:07:11;;;;;;;;;;;5.60;99.90;;;;;;5031619;28;19944;-70
2021/11/21 14:09:56;;;;;;;;;;;5.60;99.90;;;;;;5030901;28;20015;-68
2021/11/21 14:12:22;;;;;;;;;;;5.60;1.00;;;;;;5029630;28;20469;-69
2021/11/21 14:15:03;;;;;;;;;;;5.50;1.00;;;;;;5031883;28;20354;-70
2021/11/21 14:17:29;;;;;;;;;;;5.40;38.60;;;;;;5013549;28;19923;-69
2021/11/21 14:19:55;;;;;;;;;;;5.40;1.00;;;;;;5033071;28;20007;-69
2021/11/21 14:22:26;;;;;;;;;;;5.40;1.00;;;;;;5030759;28;19925;-70
2021/11/21 14:24:54;;;;;;;;;;;5.40;1.00;;;;;;5030776;28;19920;-69
2021/11/21 14:27:23;;;;;;;;;;;5.40;99.90;;;;;;5031228;28;19915;-69
2021/11/21 14:29:53;;;;;;;;;;;5.40;99.90;;;;;;5031174;28;19923;-69
2021/11/21 14:32:19;;;;;;;;;;;5.40;99.90;;;;;;5030470;28;19917;-69
2021/11/21 14:34:45;;;;;;;;;;;5.40;95.30;;;;;;5030940;28;19917;-69
2021/11/21 14:37:14;;;;;;;;;;;5.40;99.90;;;;;;5031070;28;19929;-69
2021/11/21 14:39:40;;;;;;;;;;;5.40;99.90;;;;;;5029712;28;19959;-69